createdAt,value
2019-02-04T00:02:20.884Z,74.90
2019-02-04T00:04:50.465Z,74.70
2019-02-04T00:07:20.366Z,75.00
2019-02-04T00:09:49.932Z,75.10
2019-02-04T00:12:19.970Z,74.70
2019-02-04T00:14:49.542Z,75.20
2019-02-04T00:17:19.099Z,75.10
2019-02-04T00:19:48.700Z,75.40
2019-02-04T00:22:18.279Z,75.20
2019-02-04T00:24:47.842Z,75.30
2019-02-04T00:27:17.732Z,75.20
2019-02-04T00:29:47.321Z,75.40
2019-02-04T00:32:17.131Z,75.10
2019-02-04T00:34:46.980Z,75.50
2019-02-04T00:37:17.021Z,75.40
2019-02-04T00:39:46.628Z,75.50
2019-02-04T00:42:16.171Z,75.40
2019-02-04T00:44:45.744Z,75.30
2019-02-04T00:47:15.357Z,75.60
2019-02-04T00:49:45.229Z,75.20
2019-02-04T00:52:14.787Z,75.00
2019-02-04T00:54:44.352Z,75.40
2019-02-04T00:57:14.292Z,75.60
2019-02-04T00:59:44.311Z,76.00
2019-02-04T01:02:19.851Z,76.00
2019-02-04T01:04:49.822Z,75.10
2019-02-04T01:07:19.364Z,75.70
2019-02-04T01:09:49.118Z,75.60
2019-02-04T01:12:18.676Z,75.90
2019-02-04T01:14:48.207Z,75.70
2019-02-04T01:17:17.732Z,75.70
2019-02-04T01:19:47.267Z,75.60
2019-02-04T01:22:16.870Z,75.90
2019-02-04T01:24:48.259Z,75.70
2019-02-04T01:27:17.635Z,75.90
2019-02-04T01:29:47.494Z,75.70
2019-02-04T01:32:17.106Z,76.40
2019-02-04T01:34:48.906Z,75.80
2019-02-04T01:37:17.899Z,76.10
2019-02-04T01:39:47.467Z,75.60
2019-02-04T01:42:17.050Z,75.70
2019-02-04T01:44:46.890Z,76.10
2019-02-04T01:47:16.955Z,75.60
2019-02-04T01:49:47.571Z,76.10
2019-02-04T01:52:17.188Z,76.00
2019-02-04T01:54:46.759Z,75.90
2019-02-04T01:57:17.227Z,75.60
2019-02-04T01:59:46.715Z,75.60
2019-02-04T02:02:16.294Z,75.80
2019-02-04T02:04:45.911Z,76.10
2019-02-04T02:07:15.469Z,76.00
2019-02-04T02:09:45.077Z,76.70
2019-02-04T02:12:14.633Z,75.90
2019-02-04T02:14:44.279Z,76.20
2019-02-04T02:17:13.851Z,76.20
2019-02-04T02:19:43.439Z,76.10
2019-02-04T02:22:13.322Z,76.20
2019-02-04T02:24:42.993Z,76.30
2019-02-04T02:27:12.588Z,76.20
2019-02-04T02:29:42.143Z,76.00
2019-02-04T02:32:11.699Z,76.00
2019-02-04T02:34:41.259Z,76.00
2019-02-04T02:37:10.795Z,76.00
2019-02-04T02:39:40.810Z,75.70
2019-02-04T02:42:10.450Z,75.40
2019-02-04T02:44:40.018Z,75.40
2019-02-04T02:47:09.564Z,75.50
2019-02-04T02:49:39.536Z,75.80
2019-02-04T02:52:09.616Z,75.60
2019-02-04T02:54:39.774Z,76.50
2019-02-04T02:57:09.359Z,76.50
2019-02-04T02:59:38.897Z,76.50
2019-02-04T03:02:08.459Z,75.90
2019-02-04T03:04:38.029Z,76.80
2019-02-04T03:07:08.259Z,75.60
2019-02-04T03:09:37.823Z,75.70
2019-02-04T03:12:07.433Z,75.60
2019-02-04T03:14:37.804Z,76.30
2019-02-04T03:17:07.323Z,75.60
2019-02-04T03:19:36.912Z,75.80
2019-02-04T03:22:06.442Z,75.80
2019-02-04T03:24:36.021Z,75.70
2019-02-04T03:27:05.591Z,75.70
2019-02-04T03:29:35.176Z,75.90
2019-02-04T03:32:04.772Z,75.60
2019-02-04T03:34:34.758Z,75.60
2019-02-04T03:37:04.434Z,75.60
2019-02-04T03:39:34.029Z,75.40
2019-02-04T03:42:03.692Z,75.00
2019-02-04T03:44:33.240Z,75.70
2019-02-04T03:47:02.835Z,75.40
2019-02-04T03:49:32.528Z,75.60
2019-02-04T03:52:02.109Z,75.90
2019-02-04T03:54:31.699Z,75.80
2019-02-04T03:57:01.203Z,76.00
2019-02-04T03:59:30.695Z,75.70
2019-02-04T04:02:00.778Z,75.90
2019-02-04T04:04:30.570Z,76.40
2019-02-04T04:07:00.174Z,78.00
2019-02-04T04:09:29.712Z,77.20
2019-02-04T04:11:59.255Z,77.40
2019-02-04T04:14:28.856Z,77.20
2019-02-04T04:16:58.407Z,76.40
2019-02-04T04:19:28.221Z,76.40
2019-02-04T04:21:57.830Z,76.20
2019-02-04T04:24:27.356Z,76.30
2019-02-04T04:26:56.886Z,76.20
2019-02-04T04:29:26.439Z,76.20
2019-02-04T04:31:56.106Z,76.30
2019-02-04T04:34:25.799Z,76.50
2019-02-04T04:36:55.400Z,76.60
2019-02-04T04:39:24.912Z,76.20
2019-02-04T04:41:54.571Z,76.70
2019-02-04T04:44:24.439Z,76.60
2019-02-04T04:46:54.016Z,76.50
2019-02-04T04:49:23.692Z,76.80
2019-02-04T04:51:53.244Z,76.90
2019-02-04T04:54:22.867Z,76.80
2019-02-04T04:56:52.433Z,76.30
2019-02-04T04:59:22.032Z,76.60
2019-02-04T05:01:51.595Z,76.90
2019-02-04T05:04:21.157Z,76.20
2019-02-04T05:06:50.783Z,76.60
2019-02-04T05:09:20.328Z,77.00
2019-02-04T05:11:49.922Z,77.00
2019-02-04T05:14:19.541Z,77.30
2019-02-04T05:16:49.088Z,77.20
2019-02-04T05:19:18.670Z,77.50
2019-02-04T05:21:48.301Z,77.30
2019-02-04T05:24:17.950Z,77.30
2019-02-04T05:27:07.040Z,78.50
2019-02-04T05:29:55.603Z,77.60
2019-02-04T05:35:40.060Z,76.80
2019-02-04T05:38:29.118Z,77.00
2019-02-04T05:41:18.782Z,76.30
2019-02-04T05:44:07.223Z,77.10
2019-02-04T05:46:55.733Z,77.30
2019-02-04T05:49:25.324Z,76.40
2019-02-04T05:51:55.334Z,77.00
2019-02-04T05:54:44.892Z,76.60
2019-02-04T06:03:26.876Z,76.10
2019-02-04T06:20:33.786Z,77.30
2019-02-04T06:23:13.689Z,77.30
2019-02-04T06:26:02.352Z,77.30
2019-02-04T06:28:50.955Z,75.80
2019-02-04T06:31:39.610Z,77.00
2019-02-04T06:40:33.161Z,78.00
2019-02-04T06:43:21.767Z,77.10
2019-02-04T06:46:11.027Z,76.90
2019-02-04T06:49:11.744Z,76.50
2019-02-04T06:52:01.569Z,77.20
2019-02-04T06:54:50.400Z,76.80
2019-02-04T06:57:39.219Z,75.60
2019-02-04T07:00:48.120Z,76.40
2019-02-04T07:03:28.765Z,76.60
2019-02-04T07:06:09.743Z,76.30
2019-02-04T07:14:26.502Z,76.50
2019-02-04T07:17:07.350Z,76.50
2019-02-04T07:19:49.040Z,76.50
2019-02-04T07:22:19.496Z,75.50
2019-02-04T07:25:01.328Z,76.30
2019-02-04T07:27:43.493Z,76.50
2019-02-04T07:33:06.934Z,75.70
2019-02-04T07:38:38.119Z,76.10
2019-02-04T07:47:02.272Z,75.90
2019-02-04T07:49:43.852Z,75.70
2019-02-04T07:52:13.461Z,75.70
2019-02-04T07:54:43.946Z,75.50
2019-02-04T07:57:13.524Z,75.40
2019-02-04T07:59:43.936Z,75.80
2019-02-04T08:02:14.485Z,75.80
2019-02-04T08:04:45.065Z,76.20
2019-02-04T08:07:14.670Z,76.00
2019-02-04T08:09:44.304Z,76.10
2019-02-04T08:12:14.807Z,75.80
2019-02-04T08:15:05.113Z,75.40
2019-02-04T08:17:54.492Z,76.00
2019-02-04T08:20:44.068Z,76.30
2019-02-04T08:26:14.725Z,76.40
2019-02-04T08:31:46.646Z,76.10
2019-02-04T08:34:48.460Z,76.80
2019-02-04T08:37:19.238Z,76.70
2019-02-04T08:39:52.656Z,76.50
2019-02-04T08:42:25.837Z,76.10
2019-02-04T08:44:57.534Z,75.70
2019-02-04T08:47:27.704Z,75.90
2019-02-04T08:49:59.964Z,76.40
2019-02-04T08:52:48.655Z,76.40
2019-02-04T08:58:26.832Z,76.30
2019-02-04T09:04:11.427Z,75.50
2019-02-04T09:06:59.927Z,76.00
2019-02-04T09:12:50.538Z,74.80
2019-02-04T09:15:20.379Z,74.80
2019-02-04T09:18:08.986Z,75.10
2019-02-04T09:20:58.200Z,75.00
2019-02-04T09:23:39.207Z,74.50
2019-02-04T09:26:20.710Z,73.80
2019-02-04T09:29:02.335Z,74.50
2019-02-04T09:31:44.708Z,75.20
2019-02-04T09:34:26.330Z,75.00
2019-02-04T09:36:58.061Z,75.20
2019-02-04T09:39:47.077Z,73.80
2019-02-04T09:42:17.100Z,73.70
2019-02-04T09:45:07.494Z,74.20
2019-02-04T09:53:55.390Z,73.80
2019-02-04T09:56:45.222Z,73.30
2019-02-04T09:59:18.236Z,73.30
2019-02-04T10:01:50.182Z,73.40
2019-02-04T10:04:20.504Z,72.90
2019-02-04T10:07:10.837Z,72.90
2019-02-04T10:09:59.482Z,72.30
2019-02-04T10:12:49.011Z,72.50
2019-02-04T10:15:38.514Z,71.70
2019-02-04T10:18:27.106Z,70.80
2019-02-04T10:21:15.662Z,70.00
2019-02-04T10:24:04.406Z,70.40
2019-02-04T10:29:42.290Z,70.20
2019-02-04T10:32:30.877Z,69.80
2019-02-04T10:35:19.504Z,70.80
2019-02-04T10:38:09.947Z,69.90
2019-02-04T10:40:58.895Z,69.40
2019-02-04T10:43:28.743Z,66.90
2019-02-04T10:46:17.317Z,67.90
2019-02-04T10:49:06.061Z,67.60
2019-02-04T10:51:54.927Z,66.80
2019-02-04T10:54:43.593Z,66.90
2019-02-04T10:57:40.295Z,66.90
2019-02-04T11:00:24.159Z,66.30
2019-02-04T11:03:12.913Z,66.10
2019-02-04T11:06:01.536Z,65.60
2019-02-04T11:08:50.120Z,65.10
2019-02-04T11:11:38.772Z,65.00
2019-02-04T11:14:27.696Z,64.60
2019-02-04T11:17:17.347Z,63.20
2019-02-04T11:23:08.544Z,64.70
2019-02-04T11:25:38.239Z,64.30
2019-02-04T11:28:27.405Z,65.30
2019-02-04T11:31:16.059Z,65.50
2019-02-04T11:34:04.830Z,64.30
2019-02-04T11:46:05.637Z,64.40
2019-02-04T11:48:54.182Z,63.30
2019-02-04T11:54:44.801Z,63.80
2019-02-04T11:57:33.783Z,63.50
2019-02-04T12:00:23.751Z,64.60
2019-02-04T12:03:13.768Z,64.50
2019-02-04T12:06:02.349Z,64.30
2019-02-04T12:11:38.857Z,64.70
2019-02-04T12:20:26.182Z,64.50
2019-02-04T12:23:14.816Z,63.50
2019-02-04T12:26:03.708Z,63.20
2019-02-04T12:28:52.616Z,63.70
2019-02-04T12:43:15.978Z,62.40
2019-02-04T12:49:03.733Z,61.20
2019-02-04T12:51:53.038Z,62.10
2019-02-04T12:54:26.604Z,60.70
2019-02-04T12:56:58.423Z,60.40
2019-02-04T12:59:31.976Z,60.50
2019-02-04T13:02:20.785Z,60.50
2019-02-04T13:05:10.439Z,60.20
2019-02-04T13:10:41.021Z,60.90
2019-02-04T13:16:11.715Z,61.00
2019-02-04T13:18:55.590Z,60.60
2019-02-04T13:33:08.876Z,59.00
2019-02-04T13:45:41.441Z,58.30
2019-02-04T13:48:03.357Z,57.50
2019-02-04T13:54:09.652Z,55.60
2019-02-04T13:57:03.560Z,56.10
2019-02-04T14:02:58.497Z,56.70
2019-02-04T14:14:02.850Z,55.40
2019-02-04T14:16:44.425Z,54.20
2019-02-04T14:19:26.742Z,54.30
2019-02-04T14:25:04.160Z,53.90
2019-02-04T14:27:45.002Z,54.30
2019-02-04T14:36:04.644Z,54.40
2019-02-04T14:41:42.221Z,53.60
2019-02-04T14:44:24.403Z,52.90
2019-02-04T15:01:40.538Z,53.70
2019-02-04T15:04:24.330Z,53.70
2019-02-04T15:09:54.619Z,55.30
2019-02-04T15:12:36.063Z,54.30
2019-02-04T15:15:17.805Z,54.30
2019-02-04T15:17:59.647Z,54.70
2019-02-04T15:21:07.342Z,54.50
2019-02-04T15:24:45.812Z,54.50
2019-02-04T15:27:36.890Z,54.80
2019-02-04T15:34:15.869Z,54.40
2019-02-04T15:37:23.991Z,54.20
2019-02-04T15:40:31.577Z,53.60
2019-02-04T15:43:39.225Z,54.70
2019-02-04T15:55:31.788Z,55.10
2019-02-04T16:01:15.676Z,54.70
2019-02-04T16:04:23.843Z,55.40
2019-02-04T16:07:05.456Z,55.20
2019-02-04T16:09:47.251Z,55.20
2019-02-04T16:12:28.911Z,55.30
2019-02-04T16:17:52.936Z,55.40
2019-02-04T16:20:32.926Z,56.00
2019-02-04T16:23:17.974Z,56.50
2019-02-04T16:25:59.707Z,56.70
2019-02-04T16:31:25.610Z,56.90
2019-02-04T16:36:50.904Z,57.40
2019-02-04T16:42:14.940Z,57.80
2019-02-04T16:50:39.955Z,58.50
2019-02-04T16:53:24.268Z,57.50
2019-02-04T16:58:54.765Z,58.20
2019-02-04T17:01:37.793Z,58.10
2019-02-04T17:07:08.217Z,58.40
2019-02-04T17:12:38.328Z,58.60
2019-02-04T17:15:19.668Z,58.00
2019-02-04T17:18:01.270Z,58.20
2019-02-04T17:20:44.750Z,59.30
2019-02-04T17:32:05.882Z,58.50
2019-02-04T17:37:23.996Z,58.70
2019-02-04T17:40:15.480Z,59.30
2019-02-04T17:43:04.339Z,60.00
2019-02-04T17:45:53.012Z,59.80
2019-02-04T17:51:34.082Z,60.50
2019-02-04T17:54:23.020Z,60.10
2019-02-04T17:57:11.808Z,61.10
2019-02-04T17:59:53.207Z,61.00
2019-02-04T18:02:33.945Z,61.70
2019-02-04T18:05:17.653Z,62.00
2019-02-04T18:07:59.132Z,62.10
2019-02-04T18:10:43.345Z,62.40
2019-02-04T18:19:10.237Z,63.60
2019-02-04T18:21:51.868Z,63.10
2019-02-04T18:24:33.516Z,63.40
2019-02-04T18:27:15.149Z,64.30
2019-02-04T18:32:48.993Z,64.30
2019-02-04T18:35:30.164Z,64.50
2019-02-04T18:40:57.933Z,65.10
2019-02-04T18:49:17.769Z,65.80
2019-02-04T18:57:44.912Z,65.90
2019-02-04T19:06:16.607Z,65.60
2019-02-04T19:08:57.899Z,64.50
2019-02-04T19:11:38.749Z,65.70
2019-02-04T19:14:20.214Z,65.70
2019-02-04T19:17:02.042Z,66.30
2019-02-04T19:19:43.007Z,66.20
2019-02-04T19:30:42.339Z,66.00
2019-02-04T19:33:24.089Z,66.60
2019-02-04T19:39:14.940Z,66.80
2019-02-04T19:44:44.880Z,67.60
2019-02-04T19:53:01.493Z,68.10
2019-02-04T19:58:35.052Z,68.20
2019-02-04T20:01:16.732Z,68.40
2019-02-04T20:03:58.136Z,68.00
2019-02-04T20:09:25.983Z,68.50
2019-02-04T20:14:57.417Z,67.90
2019-02-04T20:23:28.930Z,67.80
2019-02-04T20:26:17.756Z,67.80
2019-02-04T20:28:47.603Z,68.60
2019-02-04T20:31:36.445Z,67.70
2019-02-04T20:34:25.112Z,68.70
2019-02-04T20:37:15.712Z,68.60
2019-02-04T20:42:57.010Z,67.70
2019-02-04T20:45:45.660Z,67.70
2019-02-04T20:48:34.281Z,68.10
2019-02-04T20:57:20.915Z,67.70
2019-02-04T21:02:53.626Z,66.80
2019-02-04T21:08:13.795Z,68.50
2019-02-04T21:10:55.442Z,68.30
2019-02-04T21:13:36.826Z,68.80
2019-02-04T21:16:18.357Z,68.90
2019-02-04T21:18:59.380Z,68.50
2019-02-04T21:21:40.621Z,68.40
2019-02-04T21:24:21.466Z,68.40
2019-02-04T21:27:02.533Z,68.30
2019-02-04T21:29:43.899Z,68.30
2019-02-04T21:32:27.670Z,67.70
2019-02-04T21:35:09.005Z,67.50
2019-02-04T21:37:50.112Z,67.80
2019-02-04T21:46:07.001Z,67.30
2019-02-04T21:48:48.945Z,66.30
2019-02-04T22:00:17.233Z,66.50
2019-02-04T22:03:05.924Z,67.40
2019-02-04T22:09:12.211Z,66.30
2019-02-04T22:12:00.797Z,66.50
2019-02-04T22:14:49.433Z,66.90
2019-02-04T22:17:39.423Z,67.80
2019-02-04T22:20:20.927Z,67.90
2019-02-04T22:23:02.512Z,67.60
2019-02-04T22:25:44.121Z,67.70
2019-02-04T22:28:25.664Z,67.00
2019-02-04T22:37:07.559Z,66.20
2019-02-04T22:51:25.097Z,67.80
2019-02-04T22:56:55.769Z,67.90
2019-02-04T23:02:20.572Z,67.00
2019-02-04T23:07:33.455Z,68.20
2019-02-04T23:10:23.652Z,67.60
2019-02-04T23:13:12.240Z,67.90
2019-02-04T23:16:00.999Z,67.80
2019-02-04T23:18:50.042Z,66.80
2019-02-04T23:21:38.644Z,67.50
2019-02-04T23:24:27.549Z,67.40
2019-02-04T23:27:14.853Z,66.80
2019-02-04T23:29:45.387Z,67.00
2019-02-04T23:32:14.923Z,66.60
2019-02-04T23:34:44.555Z,66.60
2019-02-04T23:37:14.196Z,66.60
2019-02-04T23:39:43.783Z,66.80
2019-02-04T23:42:13.835Z,66.80
2019-02-04T23:44:43.747Z,66.70
2019-02-04T23:47:13.302Z,66.40
2019-02-04T23:49:42.839Z,66.70
2019-02-04T23:52:12.520Z,66.10
2019-02-04T23:54:42.416Z,66.50
2019-02-04T23:57:12.302Z,66.80
2019-02-04T23:59:41.989Z,66.60
